Terminal Aerodrome Forecast
Issued by NWS Grand Forks, ND

Home | Current Version | Previous Version | Graphics & Text | Print | Product List | Glossary On
Versions: 1 2 3 4 5 6 7 8 9 10 11 12 13 14 15 16 17 18 19 20 21 22 23 24
000
FTUS43 KFGF 272300
TAFGFK
TAF
KGFK 272334Z 2800/2824 17012G20KT P6SM OVC006
     FM280300 15010KT 5SM BR OVC004
     FM281100 15008KT 2SM BR OVC002
     FM281600 VRB06KT 5SM BR OVC007
     FM282000 34015KT P6SM OVC015=

USA.gov is the U.S. government's official web portal to all federal, state and local government web resources and services.